sensor_id;sensor_type;location;lat;lon;timestamp;pressure;altitude;pressure_sealevel;temperature;humidity
32197;BME280;18697;42.770;23.400;2023-04-25T00:02:01;94894.06;;;17.62;64.59
32197;BME280;18697;42.770;23.400;2023-04-25T00:04:27;94882.25;;;16.96;65.79
32197;BME280;18697;42.770;23.400;2023-04-25T00:06:53;94869.56;;;16.24;68.38
32197;BME280;18697;42.770;23.400;2023-04-25T00:09:19;94866.28;;;15.79;71.01
32197;BME280;18697;42.770;23.400;2023-04-25T00:11:44;94851.44;;;15.37;72.25
32197;BME280;18697;42.770;23.400;2023-04-25T00:14:10;94852.81;;;14.92;75.22
32197;BME280;18697;42.770;23.400;2023-04-25T00:16:35;94850.78;;;14.98;75.57
32197;BME280;18697;42.770;23.400;2023-04-25T00:19:01;94849.84;;;14.62;77.43
32197;BME280;18697;42.770;23.400;2023-04-25T00:21:27;94849.53;;;13.98;80.72
32197;BME280;18697;42.770;23.400;2023-04-25T00:23:53;94834.56;;;14.12;80.68
32197;BME280;18697;42.770;23.400;2023-04-25T00:26:19;94830.50;;;14.19;79.98
32197;BME280;18697;42.770;23.400;2023-04-25T00:28:46;94831.00;;;13.84;81.15
32197;BME280;18697;42.770;23.400;2023-04-25T00:31:11;94826.66;;;13.72;82.28
32197;BME280;18697;42.770;23.400;2023-04-25T00:33:37;94824.34;;;13.65;83.90
32197;BME280;18697;42.770;23.400;2023-04-25T00:36:02;94826.13;;;13.68;83.91
32197;BME280;18697;42.770;23.400;2023-04-25T00:38:28;94839.16;;;14.04;82.15
32197;BME280;18697;42.770;23.400;2023-04-25T00:40:53;94844.50;;;14.53;80.00
32197;BME280;18697;42.770;23.400;2023-04-25T00:43:20;94836.53;;;15.01;76.19
32197;BME280;18697;42.770;23.400;2023-04-25T00:45:47;94843.81;;;15.32;74.54
32197;BME280;18697;42.770;23.400;2023-04-25T00:48:14;94834.00;;;15.67;73.09
32197;BME280;18697;42.770;23.400;2023-04-25T00:50:39;94830.16;;;15.75;72.82
32197;BME280;18697;42.770;23.400;2023-04-25T00:53:05;94831.00;;;16.36;70.09
32197;BME280;18697;42.770;23.400;2023-04-25T00:55:31;94828.25;;;16.66;68.69
32197;BME280;18697;42.770;23.400;2023-04-25T00:57:58;94832.19;;;17.06;66.94
32197;BME280;18697;42.770;23.400;2023-04-25T01:00:23;94825.91;;;17.62;64.73
32197;BME280;18697;42.770;23.400;2023-04-25T01:02:49;94831.19;;;17.71;64.44
32197;BME280;18697;42.770;23.400;2023-04-25T01:05:15;94822.59;;;18.01;63.06
32197;BME280;18697;42.770;23.400;2023-04-25T01:07:41;94812.41;;;18.17;62.38
32197;BME280;18697;42.770;23.400;2023-04-25T01:10:07;94824.78;;;17.89;62.70
32197;BME280;18697;42.770;23.400;2023-04-25T01:12:32;94819.75;;;17.45;63.56
32197;BME280;18697;42.770;23.400;2023-04-25T01:14:58;94829.00;;;17.15;66.88
32197;BME280;18697;42.770;23.400;2023-04-25T01:17:23;94819.03;;;16.95;66.86
32197;BME280;18697;42.770;23.400;2023-04-25T01:19:49;94813.69;;;17.16;65.62
32197;BME280;18697;42.770;23.400;2023-04-25T01:22:16;94802.31;;;17.52;64.28
32197;BME280;18697;42.770;23.400;2023-04-25T01:24:42;94798.72;;;17.76;63.42
32197;BME280;18697;42.770;23.400;2023-04-25T01:27:08;94794.53;;;17.82;63.15
32197;BME280;18697;42.770;23.400;2023-04-25T01:29:34;94791.28;;;18.10;62.34
32197;BME280;18697;42.770;23.400;2023-04-25T01:32:00;94797.72;;;18.24;61.73
32197;BME280;18697;42.770;23.400;2023-04-25T01:34:27;94788.13;;;18.32;61.25
32197;BME280;18697;42.770;23.400;2023-04-25T01:36:53;94789.47;;;18.58;60.65
32197;BME280;18697;42.770;23.400;2023-04-25T01:39:19;94783.16;;;18.70;60.00
32197;BME280;18697;42.770;23.400;2023-04-25T01:41:46;94786.84;;;18.79;59.83
32197;BME280;18697;42.770;23.400;2023-04-25T01:44:11;94780.81;;;18.88;59.31
32197;BME280;18697;42.770;23.400;2023-04-25T01:46:37;94779.50;;;18.89;58.89
32197;BME280;18697;42.770;23.400;2023-04-25T01:49:02;94777.56;;;18.84;59.31
32197;BME280;18697;42.770;23.400;2023-04-25T01:51:28;94786.59;;;18.63;59.42
32197;BME280;18697;42.770;23.400;2023-04-25T01:53:54;94783.31;;;18.59;59.56
32197;BME280;18697;42.770;23.400;2023-04-25T01:56:20;94776.19;;;18.58;59.77
32197;BME280;18697;42.770;23.400;2023-04-25T01:58:45;94784.53;;;18.64;59.92
32197;BME280;18697;42.770;23.400;2023-04-25T02:01:11;94784.47;;;18.37;58.28
32197;BME280;18697;42.770;23.400;2023-04-25T02:03:36;94789.03;;;17.90;61.32
32197;BME280;18697;42.770;23.400;2023-04-25T02:06:02;94777.47;;;18.12;61.33
32197;BME280;18697;42.770;23.400;2023-04-25T02:08:27;94778.28;;;18.26;60.63
32197;BME280;18697;42.770;23.400;2023-04-25T02:10:52;94780.50;;;18.46;59.99
32197;BME280;18697;42.770;23.400;2023-04-25T02:13:18;94774.56;;;18.18;59.78
32197;BME280;18697;42.770;23.400;2023-04-25T02:15:43;94780.06;;;18.10;60.83
32197;BME280;18697;42.770;23.400;2023-04-25T02:18:09;94779.56;;;18.25;60.85
32197;BME280;18697;42.770;23.400;2023-04-25T02:20:35;94781.72;;;18.19;60.25
32197;BME280;18697;42.770;23.400;2023-04-25T02:23:02;94771.81;;;18.31;60.01
32197;BME280;18697;42.770;23.400;2023-04-25T02:25:27;94772.03;;;18.33;59.91
32197;BME280;18697;42.770;23.400;2023-04-25T02:27:52;94757.47;;;18.48;59.70
32197;BME280;18697;42.770;23.400;2023-04-25T02:30:18;94752.97;;;18.71;58.87
32197;BME280;18697;42.770;23.400;2023-04-25T02:32:44;94748.13;;;18.85;58.25
32197;BME280;18697;42.770;23.400;2023-04-25T02:35:10;94746.94;;;18.80;58.52
32197;BME280;18697;42.770;23.400;2023-04-25T02:37:36;94751.47;;;18.70;58.06
32197;BME280;18697;42.770;23.400;2023-04-25T02:40:02;94747.44;;;18.52;58.88
32197;BME280;18697;42.770;23.400;2023-04-25T02:42:29;94746.66;;;18.52;58.49
32197;BME280;18697;42.770;23.400;2023-04-25T02:44:54;94746.94;;;18.35;59.10
32197;BME280;18697;42.770;23.400;2023-04-25T02:47:20;94752.78;;;18.37;58.97
32197;BME280;18697;42.770;23.400;2023-04-25T02:49:45;94746.63;;;18.38;59.08
32197;BME280;18697;42.770;23.400;2023-04-25T02:52:11;94747.88;;;18.69;58.49
32197;BME280;18697;42.770;23.400;2023-04-25T02:54:38;94744.31;;;18.69;57.80
32197;BME280;18697;42.770;23.400;2023-04-25T02:57:03;94741.41;;;18.75;58.02
32197;BME280;18697;42.770;23.400;2023-04-25T02:59:29;94739.22;;;18.67;57.72
32197;BME280;18697;42.770;23.400;2023-04-25T03:01:54;94738.72;;;18.24;57.59
32197;BME280;18697;42.770;23.400;2023-04-25T03:04:20;94743.47;;;18.29;58.91
32197;BME280;18697;42.770;23.400;2023-04-25T03:06:46;94731.22;;;18.13;57.61
32197;BME280;18697;42.770;23.400;2023-04-25T03:09:11;94735.94;;;18.05;59.27
32197;BME280;18697;42.770;23.400;2023-04-25T03:11:38;94739.72;;;18.08;59.28
32197;BME280;18697;42.770;23.400;2023-04-25T03:14:04;94743.13;;;18.19;59.02
32197;BME280;18697;42.770;23.400;2023-04-25T03:16:29;94738.66;;;18.11;58.43
32197;BME280;18697;42.770;23.400;2023-04-25T03:18:56;94739.97;;;18.10;58.77
32197;BME280;18697;42.770;23.400;2023-04-25T03:21:21;94737.63;;;18.27;58.01
32197;BME280;18697;42.770;23.400;2023-04-25T03:23:47;94745.25;;;18.13;58.11
32197;BME280;18697;42.770;23.400;2023-04-25T03:26:12;94742.28;;;17.55;57.49
32197;BME280;18697;42.770;23.400;2023-04-25T03:28:37;94743.81;;;17.56;61.40
32197;BME280;18697;42.770;23.400;2023-04-25T03:31:04;94734.13;;;17.76;60.56
32197;BME280;18697;42.770;23.400;2023-04-25T03:33:30;94735.75;;;18.16;59.66
32197;BME280;18697;42.770;23.400;2023-04-25T03:35:55;94736.44;;;18.22;59.23
32197;BME280;18697;42.770;23.400;2023-04-25T03:38:21;94737.84;;;17.97;59.55
32197;BME280;18697;42.770;23.400;2023-04-25T03:40:46;94720.84;;;17.76;58.74
32197;BME280;18697;42.770;23.400;2023-04-25T03:43:11;94732.69;;;16.88;58.13
32197;BME280;18697;42.770;23.400;2023-04-25T03:45:37;94735.78;;;16.85;63.08
32197;BME280;18697;42.770;23.400;2023-04-25T03:48:02;94736.13;;;17.37;60.41
32197;BME280;18697;42.770;23.400;2023-04-25T03:50:28;94738.84;;;17.24;60.84
32197;BME280;18697;42.770;23.400;2023-04-25T03:52:53;94735.69;;;17.33;60.14
32197;BME280;18697;42.770;23.400;2023-04-25T03:55:19;94740.16;;;17.23;60.51
32197;BME280;18697;42.770;23.400;2023-04-25T03:57:45;94739.75;;;17.89;61.35
32197;BME280;18697;42.770;23.400;2023-04-25T04:00:11;94734.78;;;18.14;60.15
32197;BME280;18697;42.770;23.400;2023-04-25T04:02:36;94735.84;;;18.43;59.65
32197;BME280;18697;42.770;23.400;2023-04-25T04:05:04;94739.13;;;18.73;58.80
32197;BME280;18697;42.770;23.400;2023-04-25T04:07:29;94738.97;;;19.45;56.50
32197;BME280;18697;42.770;23.400;2023-04-25T04:09:57;94743.69;;;19.29;55.38
32197;BME280;18697;42.770;23.400;2023-04-25T04:12:22;94735.97;;;19.56;56.23
32197;BME280;18697;42.770;23.400;2023-04-25T04:14:47;94737.78;;;20.00;55.79
32197;BME280;18697;42.770;23.400;2023-04-25T04:17:13;94747.66;;;20.15;54.50
32197;BME280;18697;42.770;23.400;2023-04-25T04:19:38;94747.06;;;20.29;54.04
32197;BME280;18697;42.770;23.400;2023-04-25T04:22:03;94736.38;;;20.15;54.02
32197;BME280;18697;42.770;23.400;2023-04-25T04:24:29;94737.22;;;20.02;53.53
32197;BME280;18697;42.770;23.400;2023-04-25T04:26:54;94727.34;;;19.75;54.60
32197;BME280;18697;42.770;23.400;2023-04-25T04:29:20;94719.69;;;19.96;55.25
32197;BME280;18697;42.770;23.400;2023-04-25T04:31:49;94733.66;;;20.01;55.68
32197;BME280;18697;42.770;23.400;2023-04-25T04:34:14;94730.69;;;20.28;55.34
32197;BME280;18697;42.770;23.400;2023-04-25T04:36:41;94723.69;;;19.66;52.61
32197;BME280;18697;42.770;23.400;2023-04-25T04:39:07;94727.06;;;18.01;56.83
32197;BME280;18697;42.770;23.400;2023-04-25T04:41:34;94730.88;;;16.91;60.74
32197;BME280;18697;42.770;23.400;2023-04-25T04:43:59;94745.00;;;17.04;64.74
32197;BME280;18697;42.770;23.400;2023-04-25T04:46:26;94742.72;;;17.21;62.14
32197;BME280;18697;42.770;23.400;2023-04-25T04:48:53;94751.16;;;16.48;62.53
32197;BME280;18697;42.770;23.400;2023-04-25T04:51:18;94762.75;;;15.21;67.86
32197;BME280;18697;42.770;23.400;2023-04-25T04:53:44;94748.84;;;15.57;70.37
32197;BME280;18697;42.770;23.400;2023-04-25T04:56:09;94755.31;;;15.76;69.40
32197;BME280;18697;42.770;23.400;2023-04-25T04:58:36;94758.56;;;16.46;68.10
32197;BME280;18697;42.770;23.400;2023-04-25T05:01:01;94762.78;;;16.03;68.62
32197;BME280;18697;42.770;23.400;2023-04-25T05:03:27;94751.09;;;15.99;68.94
32197;BME280;18697;42.770;23.400;2023-04-25T05:05:53;94760.63;;;16.45;69.05
32197;BME280;18697;42.770;23.400;2023-04-25T05:08:18;94762.13;;;16.76;67.31
32197;BME280;18697;42.770;23.400;2023-04-25T05:10:44;94756.69;;;16.84;65.96
32197;BME280;18697;42.770;23.400;2023-04-25T05:13:09;94758.66;;;17.32;65.45
32197;BME280;18697;42.770;23.400;2023-04-25T05:15:34;94768.69;;;17.84;64.10
32197;BME280;18697;42.770;23.400;2023-04-25T05:18:00;94767.50;;;17.79;63.97
32197;BME280;18697;42.770;23.400;2023-04-25T05:20:25;94765.19;;;17.96;63.27
32197;BME280;18697;42.770;23.400;2023-04-25T05:22:51;94771.94;;;18.38;62.60
32197;BME280;18697;42.770;23.400;2023-04-25T05:25:16;94772.34;;;18.75;61.50
32197;BME280;18697;42.770;23.400;2023-04-25T05:27:41;94762.78;;;18.51;60.03
32197;BME280;18697;42.770;23.400;2023-04-25T05:30:07;94762.69;;;18.25;61.13
32197;BME280;18697;42.770;23.400;2023-04-25T05:32:34;94762.66;;;18.12;60.75
32197;BME280;18697;42.770;23.400;2023-04-25T05:34:59;94762.00;;;17.30;63.33
32197;BME280;18697;42.770;23.400;2023-04-25T05:37:25;94767.63;;;16.33;67.24
32197;BME280;18697;42.770;23.400;2023-04-25T05:39:50;94768.84;;;16.37;68.37
32197;BME280;18697;42.770;23.400;2023-04-25T05:42:15;94757.56;;;16.19;68.75
32197;BME280;18697;42.770;23.400;2023-04-25T05:44:41;94756.50;;;16.22;69.57
32197;BME280;18697;42.770;23.400;2023-04-25T05:47:06;94756.81;;;15.83;70.58
32197;BME280;18697;42.770;23.400;2023-04-25T05:49:32;94762.91;;;16.47;69.91
32197;BME280;18697;42.770;23.400;2023-04-25T05:51:57;94764.81;;;16.87;67.51
32197;BME280;18697;42.770;23.400;2023-04-25T05:54:22;94758.63;;;16.94;67.41
32197;BME280;18697;42.770;23.400;2023-04-25T05:56:48;94762.63;;;17.61;65.20
32197;BME280;18697;42.770;23.400;2023-04-25T05:59:13;94768.34;;;17.74;64.72
32197;BME280;18697;42.770;23.400;2023-04-25T06:01:38;94755.28;;;18.09;63.18
32197;BME280;18697;42.770;23.400;2023-04-25T06:04:05;94763.41;;;18.57;61.95
32197;BME280;18697;42.770;23.400;2023-04-25T06:06:30;94759.66;;;17.91;63.20
32197;BME280;18697;42.770;23.400;2023-04-25T06:08:56;94760.13;;;18.27;62.57
32197;BME280;18697;42.770;23.400;2023-04-25T06:11:22;94759.75;;;18.49;62.19
32197;BME280;18697;42.770;23.400;2023-04-25T06:13:47;94759.38;;;18.85;60.56
32197;BME280;18697;42.770;23.400;2023-04-25T06:16:12;94753.50;;;18.56;60.13
32197;BME280;18697;42.770;23.400;2023-04-25T06:18:38;94760.47;;;18.04;61.69
32197;BME280;18697;42.770;23.400;2023-04-25T06:21:03;94763.63;;;17.82;64.04
32197;BME280;18697;42.770;23.400;2023-04-25T06:23:29;94761.13;;;16.73;65.73
32197;BME280;18697;42.770;23.400;2023-04-25T06:25:54;94760.09;;;16.47;66.85
32197;BME280;18697;42.770;23.400;2023-04-25T06:28:20;94771.78;;;16.81;67.41
32197;BME280;18697;42.770;23.400;2023-04-25T06:30:47;94766.13;;;16.56;66.87
32197;BME280;18697;42.770;23.400;2023-04-25T06:33:12;94763.03;;;16.60;68.98
32197;BME280;18697;42.770;23.400;2023-04-25T06:35:37;94766.69;;;16.49;66.89
32197;BME280;18697;42.770;23.400;2023-04-25T06:38:03;94774.34;;;15.89;70.11
32197;BME280;18697;42.770;23.400;2023-04-25T06:40:37;94774.81;;;15.52;72.79
32197;BME280;18697;42.770;23.400;2023-04-25T06:46:03;94768.94;;;15.96;71.72
32197;BME280;18697;42.770;23.400;2023-04-25T06:48:29;94765.63;;;16.28;70.63
32197;BME280;18697;42.770;23.400;2023-04-25T06:50:57;94773.59;;;16.48;68.64
32197;BME280;18697;42.770;23.400;2023-04-25T06:53:31;94768.25;;;16.44;68.65
32197;BME280;18697;42.770;23.400;2023-04-25T06:55:57;94770.34;;;16.38;67.85
32197;BME280;18697;42.770;23.400;2023-04-25T06:58:25;94767.00;;;16.16;66.60
32197;BME280;18697;42.770;23.400;2023-04-25T07:00:51;94767.91;;;16.29;69.62
32197;BME280;18697;42.770;23.400;2023-04-25T07:03:16;94774.09;;;17.01;67.29
32197;BME280;18697;42.770;23.400;2023-04-25T07:05:42;94774.91;;;17.58;65.94
32197;BME280;18697;42.770;23.400;2023-04-25T07:08:07;94774.75;;;17.50;65.14
32197;BME280;18697;42.770;23.400;2023-04-25T07:10:32;94777.22;;;17.78;64.50
32197;BME280;18697;42.770;23.400;2023-04-25T07:12:58;94785.22;;;18.06;63.23
32197;BME280;18697;42.770;23.400;2023-04-25T07:15:23;94770.03;;;18.15;63.40
32197;BME280;18697;42.770;23.400;2023-04-25T07:17:49;94771.25;;;18.00;63.59
32197;BME280;18697;42.770;23.400;2023-04-25T07:20:14;94770.31;;;18.11;62.97
32197;BME280;18697;42.770;23.400;2023-04-25T07:22:41;94774.34;;;18.16;62.98
32197;BME280;18697;42.770;23.400;2023-04-25T07:25:07;94769.66;;;18.37;62.42
32197;BME280;18697;42.770;23.400;2023-04-25T07:27:33;94762.53;;;18.36;61.13
32197;BME280;18697;42.770;23.400;2023-04-25T07:29:59;94755.50;;;18.43;61.52
32197;BME280;18697;42.770;23.400;2023-04-25T07:32:25;94757.66;;;18.82;60.87
32197;BME280;18697;42.770;23.400;2023-04-25T07:34:51;94752.03;;;18.95;59.92
32197;BME280;18697;42.770;23.400;2023-04-25T07:37:16;94761.41;;;18.71;59.74
32197;BME280;18697;42.770;23.400;2023-04-25T07:39:44;94758.13;;;18.54;61.64
32197;BME280;18697;42.770;23.400;2023-04-25T07:42:11;94753.50;;;17.17;64.45
32197;BME280;18697;42.770;23.400;2023-04-25T07:44:36;94762.94;;;17.57;64.49
32197;BME280;18697;42.770;23.400;2023-04-25T07:47:07;94759.72;;;18.04;62.96
32197;BME280;18697;42.770;23.400;2023-04-25T07:49:33;94769.63;;;18.24;62.85
32197;BME280;18697;42.770;23.400;2023-04-25T07:52:00;94762.75;;;18.06;61.96
32197;BME280;18697;42.770;23.400;2023-04-25T07:54:25;94762.97;;;17.76;63.02
32197;BME280;18697;42.770;23.400;2023-04-25T07:56:51;94761.94;;;17.55;63.86
32197;BME280;18697;42.770;23.400;2023-04-25T07:59:16;94754.19;;;17.42;66.17
32197;BME280;18697;42.770;23.400;2023-04-25T08:01:41;94760.19;;;17.89;64.10
32197;BME280;18697;42.770;23.400;2023-04-25T08:04:07;94765.69;;;18.46;62.05
32197;BME280;18697;42.770;23.400;2023-04-25T08:06:32;94755.19;;;18.46;61.52
32197;BME280;18697;42.770;23.400;2023-04-25T08:08:58;94745.03;;;18.11;61.88
32197;BME280;18697;42.770;23.400;2023-04-25T08:11:23;94751.75;;;17.89;62.72
32197;BME280;18697;42.770;23.400;2023-04-25T08:13:48;94755.56;;;17.54;64.33
32197;BME280;18697;42.770;23.400;2023-04-25T08:16:14;94758.09;;;17.77;64.21
32197;BME280;18697;42.770;23.400;2023-04-25T08:18:39;94753.28;;;18.22;63.56
32197;BME280;18697;42.770;23.400;2023-04-25T08:21:05;94751.78;;;18.66;63.35
32197;BME280;18697;42.770;23.400;2023-04-25T08:23:31;94746.94;;;18.80;64.25
32197;BME280;18697;42.770;23.400;2023-04-25T08:25:57;94745.44;;;18.92;62.13
32197;BME280;18697;42.770;23.400;2023-04-25T08:28:22;94748.34;;;19.00;60.57
32197;BME280;18697;42.770;23.400;2023-04-25T08:30:48;94749.00;;;19.06;62.49
32197;BME280;18697;42.770;23.400;2023-04-25T08:33:13;94746.94;;;18.93;62.05
32197;BME280;18697;42.770;23.400;2023-04-25T08:35:38;94750.50;;;18.94;60.92
32197;BME280;18697;42.770;23.400;2023-04-25T08:38:04;94755.81;;;19.11;60.17
32197;BME280;18697;42.770;23.400;2023-04-25T08:40:35;94749.72;;;19.33;59.38
32197;BME280;18697;42.770;23.400;2023-04-25T08:43:03;94751.44;;;19.36;59.81
32197;BME280;18697;42.770;23.400;2023-04-25T08:45:31;94749.66;;;19.25;59.24
32197;BME280;18697;42.770;23.400;2023-04-25T08:47:57;94757.41;;;18.80;58.86
32197;BME280;18697;42.770;23.400;2023-04-25T08:50:23;94749.25;;;18.50;61.86
32197;BME280;18697;42.770;23.400;2023-04-25T08:52:49;94758.28;;;17.22;69.23
32197;BME280;18697;42.770;23.400;2023-04-25T08:55:18;94761.31;;;16.81;72.40
32197;BME280;18697;42.770;23.400;2023-04-25T08:57:44;94761.59;;;16.23;71.41
32197;BME280;18697;42.770;23.400;2023-04-25T09:00:11;94752.91;;;16.27;71.88
32197;BME280;18697;42.770;23.400;2023-04-25T09:02:38;94755.75;;;16.75;69.34
32197;BME280;18697;42.770;23.400;2023-04-25T09:05:05;94748.22;;;16.65;69.39
32197;BME280;18697;42.770;23.400;2023-04-25T09:07:32;94735.38;;;17.18;67.21
32197;BME280;18697;42.770;23.400;2023-04-25T09:09:57;94736.06;;;17.24;64.58
32197;BME280;18697;42.770;23.400;2023-04-25T09:12:25;94732.53;;;17.93;64.84
32197;BME280;18697;42.770;23.400;2023-04-25T09:15:10;94726.66;;;18.42;65.36
32197;BME280;18697;42.770;23.400;2023-04-25T09:17:36;94719.97;;;18.71;61.51
32197;BME280;18697;42.770;23.400;2023-04-25T09:20:11;94718.91;;;19.01;59.74
32197;BME280;18697;42.770;23.400;2023-04-25T09:22:37;94710.72;;;19.37;60.08
32197;BME280;18697;42.770;23.400;2023-04-25T09:25:10;94715.16;;;19.46;58.32
32197;BME280;18697;42.770;23.400;2023-04-25T09:27:36;94711.91;;;19.55;60.66
32197;BME280;18697;42.770;23.400;2023-04-25T09:30:02;94708.84;;;19.66;62.98
32197;BME280;18697;42.770;23.400;2023-04-25T09:32:28;94702.03;;;19.61;62.25
32197;BME280;18697;42.770;23.400;2023-04-25T09:34:55;94698.69;;;19.50;59.11
32197;BME280;18697;42.770;23.400;2023-04-25T09:37:25;94701.94;;;19.41;59.16
32197;BME280;18697;42.770;23.400;2023-04-25T09:39:53;94702.88;;;19.09;61.65
32197;BME280;18697;42.770;23.400;2023-04-25T09:42:22;94703.22;;;18.92;62.87
32197;BME280;18697;42.770;23.400;2023-04-25T09:44:51;94712.81;;;18.57;61.89
32197;BME280;18697;42.770;23.400;2023-04-25T09:47:17;94717.91;;;18.46;64.35
32197;BME280;18697;42.770;23.400;2023-04-25T09:49:43;94709.09;;;18.23;64.83
32197;BME280;18697;42.770;23.400;2023-04-25T09:52:13;94701.38;;;18.10;65.47
32197;BME280;18697;42.770;23.400;2023-04-25T09:54:40;94698.66;;;18.04;63.33
32197;BME280;18697;42.770;23.400;2023-04-25T09:59:40;94691.47;;;18.22;67.85
32197;BME280;18697;42.770;23.400;2023-04-25T10:02:07;94700.28;;;18.45;64.83
32197;BME280;18697;42.770;23.400;2023-04-25T10:04:34;94692.72;;;18.80;65.54
32197;BME280;18697;42.770;23.400;2023-04-25T10:07:03;94691.88;;;18.85;61.35
32197;BME280;18697;42.770;23.400;2023-04-25T10:09:31;94691.19;;;19.18;60.39
32197;BME280;18697;42.770;23.400;2023-04-25T10:11:59;94692.31;;;19.36;59.33
32197;BME280;18697;42.770;23.400;2023-04-25T10:14:29;94689.59;;;19.44;57.33
32197;BME280;18697;42.770;23.400;2023-04-25T10:16:55;94683.97;;;19.57;59.13
32197;BME280;18697;42.770;23.400;2023-04-25T10:19:21;94682.19;;;19.67;57.15
32197;BME280;18697;42.770;23.400;2023-04-25T10:22:01;94681.31;;;19.72;57.81
32197;BME280;18697;42.770;23.400;2023-04-25T10:24:28;94670.75;;;19.86;56.88
32197;BME280;18697;42.770;23.400;2023-04-25T10:26:55;94665.78;;;19.79;55.40
32197;BME280;18697;42.770;23.400;2023-04-25T10:29:23;94679.28;;;19.25;56.20
32197;BME280;18697;42.770;23.400;2023-04-25T10:31:49;94704.81;;;17.52;61.22
32197;BME280;18697;42.770;23.400;2023-04-25T10:34:18;94727.09;;;17.26;63.08
32197;BME280;18697;42.770;23.400;2023-04-25T10:36:51;94720.72;;;16.88;62.32
32197;BME280;18697;42.770;23.400;2023-04-25T10:39:26;94734.53;;;16.56;63.94
32197;BME280;18697;42.770;23.400;2023-04-25T10:41:59;94722.03;;;16.32;64.21
32197;BME280;18697;42.770;23.400;2023-04-25T10:44:28;94706.81;;;15.98;64.06
32197;BME280;18697;42.770;23.400;2023-04-25T10:47:01;94703.03;;;15.60;65.84
32197;BME280;18697;42.770;23.400;2023-04-25T10:52:26;94701.53;;;15.53;68.22
32197;BME280;18697;42.770;23.400;2023-04-25T10:54:54;94692.00;;;15.32;69.30
32197;BME280;18697;42.770;23.400;2023-04-25T10:57:35;94700.28;;;15.49;71.56
32197;BME280;18697;42.770;23.400;2023-04-25T11:00:07;94693.94;;;15.84;69.89
32197;BME280;18697;42.770;23.400;2023-04-25T11:02:40;94689.03;;;16.20;71.87
32197;BME280;18697;42.770;23.400;2023-04-25T11:05:06;94692.38;;;16.42;69.93
32197;BME280;18697;42.770;23.400;2023-04-25T11:10:09;94688.59;;;17.26;71.07
32197;BME280;18697;42.770;23.400;2023-04-25T11:12:35;94686.16;;;17.55;66.16
32197;BME280;18697;42.770;23.400;2023-04-25T11:15:04;94685.25;;;17.97;66.19
32197;BME280;18697;42.770;23.400;2023-04-25T11:17:31;94682.63;;;18.31;64.48
32197;BME280;18697;42.770;23.400;2023-04-25T11:19:56;94680.72;;;18.66;58.63
32197;BME280;18697;42.770;23.400;2023-04-25T11:22:22;94669.25;;;18.90;56.07
32197;BME280;18697;42.770;23.400;2023-04-25T11:24:48;94661.09;;;19.13;57.30
32197;BME280;18697;42.770;23.400;2023-04-25T11:27:14;94662.00;;;19.42;58.64
32197;BME280;18697;42.770;23.400;2023-04-25T11:29:40;94649.22;;;19.75;57.88
32197;BME280;18697;42.770;23.400;2023-04-25T11:32:08;94666.00;;;20.01;56.08
32197;BME280;18697;42.770;23.400;2023-04-25T11:34:34;94651.94;;;20.30;51.48
32197;BME280;18697;42.770;23.400;2023-04-25T11:37:00;94649.03;;;20.64;54.27
32197;BME280;18697;42.770;23.400;2023-04-25T11:39:27;94638.63;;;20.87;52.81
32197;BME280;18697;42.770;23.400;2023-04-25T11:41:53;94649.69;;;20.85;51.71
32197;BME280;18697;42.770;23.400;2023-04-25T11:44:27;94644.19;;;20.72;48.35
32197;BME280;18697;42.770;23.400;2023-04-25T11:49:32;94651.69;;;20.41;45.92
32197;BME280;18697;42.770;23.400;2023-04-25T11:51:57;94635.53;;;20.70;49.19
32197;BME280;18697;42.770;23.400;2023-04-25T11:54:23;94644.25;;;20.80;50.16
32197;BME280;18697;42.770;23.400;2023-04-25T11:56:48;94644.69;;;20.63;49.67
32197;BME280;18697;42.770;23.400;2023-04-25T11:59:14;94626.72;;;20.81;49.50
32197;BME280;18697;42.770;23.400;2023-04-25T12:01:48;94638.06;;;20.89;49.73
32197;BME280;18697;42.770;23.400;2023-04-25T12:04:16;94627.78;;;20.63;49.94
32197;BME280;18697;42.770;23.400;2023-04-25T12:06:44;94626.31;;;20.41;51.13
32197;BME280;18697;42.770;23.400;2023-04-25T12:09:12;94621.75;;;19.68;50.20
32197;BME280;18697;42.770;23.400;2023-04-25T12:14:07;94623.00;;;19.46;51.79
32197;BME280;18697;42.770;23.400;2023-04-25T12:17:00;94642.28;;;18.16;53.74
32197;BME280;18697;42.770;23.400;2023-04-25T12:19:29;94646.72;;;18.24;55.12
32197;BME280;18697;42.770;23.400;2023-04-25T12:21:56;94639.84;;;17.80;56.21
32197;BME280;18697;42.770;23.400;2023-04-25T12:24:23;94638.66;;;17.57;54.42
32197;BME280;18697;42.770;23.400;2023-04-25T12:29:25;94647.19;;;17.14;53.32
32197;BME280;18697;42.770;23.400;2023-04-25T12:31:52;94680.94;;;17.08;56.12
32197;BME280;18697;42.770;23.400;2023-04-25T12:34:21;94678.84;;;16.71;65.02
32197;BME280;18697;42.770;23.400;2023-04-25T12:36:47;94743.78;;;16.21;69.57
32197;BME280;18697;42.770;23.400;2023-04-25T12:39:20;94730.66;;;15.33;68.03
32197;BME280;18697;42.770;23.400;2023-04-25T12:41:50;94722.53;;;14.77;69.99
32197;BME280;18697;42.770;23.400;2023-04-25T12:44:16;94718.03;;;15.10;70.64
32197;BME280;18697;42.770;23.400;2023-04-25T12:46:42;94701.88;;;15.38;71.78
32197;BME280;18697;42.770;23.400;2023-04-25T12:49:08;94698.22;;;15.90;69.67
32197;BME280;18697;42.770;23.400;2023-04-25T12:51:34;94697.34;;;16.31;68.63
32197;BME280;18697;42.770;23.400;2023-04-25T12:54:00;94691.44;;;16.83;68.17
32197;BME280;18697;42.770;23.400;2023-04-25T12:56:29;94683.88;;;17.34;66.64
32197;BME280;18697;42.770;23.400;2023-04-25T12:58:55;94688.56;;;17.64;70.56
32197;BME280;18697;42.770;23.400;2023-04-25T13:01:21;94693.00;;;17.91;66.05
32197;BME280;18697;42.770;23.400;2023-04-25T13:03:46;94694.25;;;18.09;66.52
32197;BME280;18697;42.770;23.400;2023-04-25T13:06:13;94694.28;;;18.22;63.68